Time;durP1;ratioP1;P1;durP2;ratioP2;P2;SDS_P1;SDS_P2;PMS_P1;PMS_P2;Temp;Humidity;BMP_temperature;BMP_pressure;BME280_temperature;BME280_humidity;BME280_pressure;Samples;Min_cycle;Max_cycle;Signal;HPM_P1;HPM_P2
2022/12/02 00:01:01;;;;;;;6.15;5.55;;;;;;;3.66;72.85;95241.47;5017706;28;20206;-72
2022/12/02 00:03:29;;;;;;;5.40;5.00;;;;;;;3.60;73.25;95241.59;5018121;28;20184;-72
2022/12/02 00:05:56;;;;;;;4.88;4.47;;;;;;;3.54;73.29;95245.53;5019248;28;20199;-72
2022/12/02 00:08:26;;;;;;;4.10;3.80;;;;;;;3.48;73.35;95241.28;5019927;28;20534;-72
2022/12/02 00:10:56;;;;;;;4.00;3.60;;;;;;;3.41;73.17;95240.88;5020123;28;20235;-71
2022/12/02 00:13:28;;;;;;;3.55;3.25;;;;;;;3.40;73.80;95235.75;5036833;28;20203;-71
2022/12/02 00:15:56;;;;;;;3.75;3.45;;;;;;;3.42;74.32;95237.06;5020653;28;20210;-71
2022/12/02 00:18:25;;;;;;;4.05;3.70;;;;;;;3.42;74.15;95234.34;5021960;28;20187;-71
2022/12/02 00:20:54;;;;;;;4.35;4.00;;;;;;;3.41;74.09;95240.88;5022406;28;20245;-72
2022/12/02 00:23:22;;;;;;;4.43;4.13;;;;;;;3.40;74.00;95236.56;5022725;28;20188;-71
2022/12/02 00:25:53;;;;;;;4.07;3.75;;;;;;;3.38;73.74;95244.25;5019145;28;20304;-71
2022/12/02 00:28:21;;;;;;;4.60;4.20;;;;;;;3.37;74.53;95239.88;5019213;28;20221;-71
2022/12/02 00:30:51;;;;;;;3.65;3.38;;;;;;;3.40;74.63;95238.47;5020253;28;20194;-71
2022/12/02 00:33:20;;;;;;;3.50;3.30;;;;;;;3.35;74.54;95233.94;5019005;28;20632;-72
2022/12/02 00:35:48;;;;;;;4.10;3.75;;;;;;;3.33;74.80;95242.41;5016890;28;20218;-72
2022/12/02 00:38:16;;;;;;;4.25;3.95;;;;;;;3.36;74.68;95236.34;5016829;28;20176;-71
2022/12/02 00:40:44;;;;;;;4.45;4.10;;;;;;;3.35;74.75;95233.94;5016769;28;20196;-71
2022/12/02 00:48:46;;;;;;;4.47;4.07;;;;;;;3.29;74.58;95227.75;5020607;28;20662;-71
2022/12/02 00:51:14;;;;;;;5.10;4.60;;;;;;;3.26;74.52;95233.81;5021628;28;20269;-71
2022/12/02 00:53:43;;;;;;;4.97;4.57;;;;;;;3.28;75.37;95225.34;5020001;28;20211;-71
2022/12/02 00:56:11;;;;;;;6.43;5.93;;;;;;;3.33;75.40;95234.22;5017589;28;20195;-71
2022/12/02 00:58:39;;;;;;;6.30;5.78;;;;;;;3.36;75.15;95227.38;5018522;28;20187;-71
2022/12/02 01:01:09;;;;;;;4.65;4.25;;;;;;;3.38;75.39;95228.69;5018861;28;20206;-71
2022/12/02 01:03:38;;;;;;;4.13;3.83;;;;;;;3.38;75.05;95225.97;5020656;28;20207;-71
2022/12/02 01:06:06;;;;;;;4.40;4.10;;;;;;;3.37;74.95;95227.03;5020628;28;20253;-71
2022/12/02 01:08:35;;;;;;;4.25;3.95;;;;;;;3.34;74.78;95227.69;5020141;28;20203;-71
2022/12/02 01:11:04;;;;;;;4.63;4.22;;;;;;;3.35;75.33;95223.84;5019222;28;20203;-71
2022/12/02 01:13:32;;;;;;;4.60;4.20;;;;;;;3.37;74.90;95223.50;5019599;28;20222;-72
2022/12/02 01:16:00;;;;;;;4.22;3.92;;;;;;;3.42;75.15;95217.19;5019110;28;20207;-71
2022/12/02 01:18:30;;;;;;;4.25;3.92;;;;;;;3.43;74.89;95227.75;5018915;28;20183;-71
2022/12/02 01:20:58;;;;;;;4.15;3.78;;;;;;;3.44;75.31;95223.13;5017062;28;20520;-71
2022/12/02 01:23:27;;;;;;;4.00;3.70;;;;;;;3.41;75.30;95223.72;5016563;28;20195;-71
2022/12/02 01:25:55;;;;;;;4.40;4.03;;;;;;;3.36;75.27;95222.72;5034318;28;20682;-71
2022/12/02 01:28:24;;;;;;;5.10;4.60;;;;;;;3.32;75.57;95221.72;5036481;28;20218;-71
2022/12/02 01:30:51;;;;;;;5.72;5.22;;;;;;;3.31;75.76;95217.38;5036175;28;20198;-71
2022/12/02 01:33:19;;;;;;;5.38;4.88;;;;;;;3.30;76.31;95229.38;5036797;28;20190;-71
2022/12/02 01:35:49;;;;;;;3.90;3.13;;;;;;;3.29;76.01;95227.75;5019659;28;20198;-71
2022/12/02 01:38:17;;;;;;;2.83;2.63;;;;;;;3.27;75.77;95219.09;5036902;28;20197;-71
2022/12/02 01:40:45;;;;;;;2.92;2.65;;;;;;;3.28;76.03;95225.34;5019311;28;20198;-71
2022/12/02 01:43:13;;;;;;;2.60;2.40;;;;;;;3.30;75.74;95223.91;5019985;28;20198;-71
2022/12/02 01:45:42;;;;;;;2.40;2.20;;;;;;;3.31;75.61;95219.28;5019555;28;20203;-71
2022/12/02 01:48:11;;;;;;;2.60;2.40;;;;;;;3.30;75.79;95220.38;5036436;28;20321;-71
2022/12/02 01:50:39;;;;;;;2.95;2.75;;;;;;;3.34;75.32;95215.94;5019811;28;20207;-71
2022/12/02 01:53:09;;;;;;;3.40;3.13;;;;;;;3.36;75.54;95222.72;5019427;28;20221;-71
2022/12/02 01:55:37;;;;;;;3.78;3.47;;;;;;;3.38;75.58;95231.41;5019097;28;20210;-71
2022/12/02 01:58:05;;;;;;;3.90;3.60;;;;;;;3.37;76.04;95221.59;5036272;28;20198;-71
2022/12/02 02:00:33;;;;;;;3.78;3.58;;;;;;;3.40;75.47;95227.56;5019696;28;20198;-71
2022/12/02 02:03:01;;;;;;;3.72;3.42;;;;;;;3.37;75.34;95224.31;5019850;28;20202;-73
2022/12/02 02:05:31;;;;;;;3.67;3.42;;;;;;;3.34;75.90;95224.94;5017002;28;20442;-72
2022/12/02 02:08:03;;;;;;;3.83;3.53;;;;;;;3.37;76.02;95231.69;5034350;28;20460;-73
2022/12/02 02:10:34;;;;;;;3.28;3.08;;;;;;;3.36;75.77;95235.53;5018368;28;20213;-72
2022/12/02 02:13:01;;;;;;;3.30;3.00;;;;;;;3.40;75.35;95230.28;5035399;28;20225;-70
2022/12/02 02:15:30;;;;;;;2.70;2.50;;;;;;;3.37;75.07;95229.78;5019130;28;20201;-72
2022/12/02 02:17:58;;;;;;;3.10;2.90;;;;;;;3.34;75.45;95230.41;5021385;28;20264;-71
2022/12/02 02:20:27;;;;;;;2.85;2.65;;;;;;;3.37;75.67;95224.31;5021444;28;20236;-71
2022/12/02 02:23:01;;;;;;;3.00;2.80;;;;;;;3.40;75.84;95231.09;5023838;28;20190;-71
2022/12/02 02:25:32;;;;;;;3.08;2.85;;;;;;;3.41;75.55;95231.91;5019827;28;20234;-71
2022/12/02 02:28:01;;;;;;;2.78;2.58;;;;;;;3.38;75.89;95241.50;5019516;28;20215;-72
2022/12/02 02:30:31;;;;;;;2.90;2.70;;;;;;;3.38;75.91;95246.97;5018107;28;20202;-70
2022/12/02 02:33:00;;;;;;;3.10;2.90;;;;;;;3.40;75.38;95239.28;5018039;28;20667;-70
2022/12/02 02:35:28;;;;;;;4.38;4.07;;;;;;;3.40;75.38;95246.66;5034416;28;20199;-70
2022/12/02 02:37:59;;;;;;;3.65;3.42;;;;;;;3.42;75.63;95245.25;5034477;28;20199;-70
2022/12/02 02:40:30;;;;;;;3.92;3.63;;;;;;;3.45;75.53;95243.81;5018309;28;20535;-70
2022/12/02 02:43:04;;;;;;;3.55;3.35;;;;;;;3.46;75.35;95251.69;5018287;28;20224;-70
2022/12/02 02:45:34;;;;;;;4.20;3.90;;;;;;;3.47;75.20;95250.59;5018770;28;20245;-70
2022/12/02 02:48:04;;;;;;;4.78;4.47;;;;;;;3.46;75.25;95246.25;5018441;28;20662;-70
2022/12/02 02:50:34;;;;;;;4.80;4.50;;;;;;;3.45;75.07;95254.72;5018927;28;20209;-70
2022/12/02 02:53:05;;;;;;;5.10;4.70;;;;;;;3.47;75.62;95247.06;5018503;28;20222;-70
2022/12/02 02:55:37;;;;;;;5.22;4.82;;;;;;;3.47;74.94;95252.50;5001675;28;20210;-70
2022/12/02 02:58:19;;;;;;;5.60;5.10;;;;;;;3.48;74.95;95249.47;5018313;28;20219;-70
2022/12/02 03:00:50;;;;;;;5.45;5.05;;;;;;;3.52;74.72;95252.41;5018295;28;20199;-70
2022/12/02 03:03:20;;;;;;;5.70;5.20;;;;;;;3.53;75.17;95259.47;5017292;28;20205;-70
2022/12/02 03:05:50;;;;;;;5.47;5.07;;;;;;;3.54;75.19;95253.72;5017586;28;20209;-70
2022/12/02 03:08:18;;;;;;;6.97;5.53;;;;;;;3.51;75.55;95248.88;5017283;28;20222;-70
2022/12/02 03:10:47;;;;;;;5.72;5.22;;;;;;;3.51;75.43;95250.78;5018276;28;20168;-70
2022/12/02 03:13:20;;;;;;;5.13;4.72;;;;;;;3.50;75.73;95249.97;5033679;28;20203;-70
2022/12/02 03:15:49;;;;;;;5.03;4.65;;;;;;;3.47;75.97;95249.78;5017158;28;20195;-70
2022/12/02 03:18:17;;;;;;;4.70;4.32;;;;;;;3.47;75.90;95247.06;5018441;28;20187;-70
2022/12/02 03:20:46;;;;;;;5.10;4.70;;;;;;;3.47;76.09;95252.50;5018427;28;20253;-70
2022/12/02 03:23:15;;;;;;;4.80;4.50;;;;;;;3.50;75.87;95257.34;5033729;28;20195;-71
2022/12/02 03:25:43;;;;;;;5.20;4.80;;;;;;;3.48;75.64;95260.38;5033140;28;20241;-71
2022/12/02 03:28:14;;;;;;;5.15;4.75;;;;;;;3.47;75.54;95266.16;5022185;28;20431;-71
2022/12/02 03:30:43;;;;;;;6.55;5.82;;;;;;;3.48;76.38;95262.28;5043963;28;20190;-70
2022/12/02 03:33:11;;;;;;;6.22;5.63;;;;;;;3.47;75.93;95266.16;5043006;28;20183;-71
2022/12/02 03:35:38;;;;;;;6.50;5.90;;;;;;;3.44;75.74;95264.00;5042297;28;20198;-71
2022/12/02 03:38:07;;;;;;;5.95;5.45;;;;;;;3.46;75.93;95262.63;5025331;28;20190;-71
2022/12/02 03:40:38;;;;;;;6.70;6.03;;;;;;;3.51;76.07;95262.50;5025194;28;20272;-71
2022/12/02 03:43:09;;;;;;;7.38;6.60;;;;;;;3.54;75.69;95258.38;5008653;28;20542;-71
2022/12/02 03:45:41;;;;;;;6.68;5.97;;;;;;;3.55;76.01;95266.22;5024361;28;20195;-71
2022/12/02 03:48:19;;;;;;;6.50;5.90;;;;;;;3.58;76.27;95267.56;5024508;28;20316;-71
2022/12/02 03:50:48;;;;;;;7.95;5.95;;;;;;;3.57;76.18;95268.66;5025239;28;20198;-71
2022/12/02 03:53:18;;;;;;;6.43;5.78;;;;;;;3.55;76.12;95271.69;5041808;28;20194;-71
2022/12/02 03:55:49;;;;;;;8.75;7.20;;;;;;;3.56;76.11;95270.59;5025753;28;20289;-70
2022/12/02 03:58:18;;;;;;;8.80;7.80;;;;;;;3.57;76.35;95269.47;5042584;28;20194;-71
2022/12/02 04:00:46;;;;;;;9.55;8.00;;;;;;;3.54;76.20;95274.72;5008413;28;20201;-71
2022/12/02 04:03:38;;;;;;;8.73;7.57;;;;;;;3.53;75.99;95273.13;5042916;28;20194;-71
2022/12/02 04:06:07;;;;;;;11.18;8.85;;;;;;;3.52;76.22;95272.31;5025577;28;20207;-71
2022/12/02 04:08:38;;;;;;;10.77;8.90;;;;;;;3.42;75.92;95280.69;5025177;28;20206;-71
2022/12/02 04:11:06;;;;;;;11.27;8.85;;;;;;;3.36;76.76;95285.41;5042434;28;20297;-71
2022/12/02 04:13:33;;;;;;;10.80;9.02;;;;;;;3.33;77.22;95290.66;5027720;28;20257;-72
2022/12/02 04:16:04;;;;;;;11.55;8.63;;;;;;;3.30;77.40;95283.91;5045266;28;20213;-71
2022/12/02 04:18:37;;;;;;;9.23;8.02;;;;;;;3.25;77.48;95289.44;5026488;28;20237;-72
2022/12/02 04:21:05;;;;;;;9.75;8.07;;;;;;;3.27;77.66;95286.44;5022055;28;20198;-71
2022/12/02 04:23:34;;;;;;;9.38;8.00;;;;;;;3.24;77.99;95293.28;5038341;28;20269;-71
2022/12/02 04:26:02;;;;;;;9.43;7.57;;;;;;;3.24;78.22;95289.75;5017261;28;20242;-72
2022/12/02 04:28:31;;;;;;;7.95;7.15;;;;;;;3.26;78.13;95287.53;5018935;28;20214;-71
2022/12/02 04:30:58;;;;;;;9.38;7.38;;;;;;;3.24;78.42;95285.13;5023372;28;20707;-71
2022/12/02 04:33:27;;;;;;;9.25;7.47;;;;;;;3.26;78.46;95288.34;5023720;28;20199;-72
2022/12/02 04:36:00;;;;;;;9.93;8.13;;;;;;;3.25;78.27;95288.66;5021927;28;20202;-72
2022/12/02 04:38:28;;;;;;;10.32;8.00;;;;;;;3.25;78.64;95292.19;5023432;28;20270;-72
2022/12/02 04:40:59;;;;;;;11.75;8.57;;;;;;;3.25;78.79;95285.91;5039489;28;20199;-71
2022/12/02 04:43:27;;;;;;;11.80;9.05;;;;;;;3.24;78.71;95287.03;5022001;28;20188;-71
2022/12/02 04:45:55;;;;;;;12.45;9.48;;;;;;;3.25;78.96;95288.66;5021289;28;20190;-72
2022/12/02 04:48:22;;;;;;;11.30;9.10;;;;;;;3.27;79.22;95291.91;5022024;28;20219;-72
2022/12/02 04:50:51;;;;;;;11.02;8.95;;;;;;;3.30;79.51;95283.91;5023888;28;20262;-71
2022/12/02 04:53:27;;;;;;;12.85;9.55;;;;;;;3.26;79.14;95292.97;5023045;28;20203;-71
2022/12/02 04:55:55;;;;;;;13.43;9.82;;;;;;;3.24;79.29;95298.75;5023366;28;20206;-70
2022/12/02 04:58:26;;;;;;;12.25;10.52;;;;;;;3.25;79.52;95303.09;5023375;28;20199;-70
2022/12/02 05:00:54;;;;;;;13.73;10.18;;;;;;;3.26;79.55;95299.25;5023189;28;20528;-71
2022/12/02 05:03:22;;;;;;;13.15;10.32;;;;;;;3.22;79.06;95298.22;5022031;28;20205;-71
2022/12/02 05:05:51;;;;;;;14.35;10.35;;;;;;;3.19;79.41;95298.03;5023152;28;20205;-71
2022/12/02 05:08:22;;;;;;;13.93;10.90;;;;;;;3.22;79.43;95298.22;5038440;28;20681;-71
2022/12/02 05:11:00;;;;;;;12.68;10.05;;;;;;;3.25;79.43;95305.00;5020118;28;20199;-71
2022/12/02 05:13:29;;;;;;;14.15;10.65;;;;;;;3.24;80.08;95300.66;5020568;28;20210;-71
2022/12/02 05:15:59;;;;;;;14.20;11.00;;;;;;;3.22;79.72;95300.94;5020394;28;20191;-71
2022/12/02 05:18:28;;;;;;;14.70;11.25;;;;;;;3.22;79.70;95305.59;5020807;28;20253;-71
2022/12/02 05:20:59;;;;;;;13.60;10.95;;;;;;;3.24;79.93;95306.94;5036650;28;20206;-71
2022/12/02 05:23:27;;;;;;;16.20;12.20;;;;;;;3.22;80.38;95308.31;5018910;28;20306;-73
2022/12/02 05:25:59;;;;;;;16.15;12.25;;;;;;;3.24;80.09;95306.13;5033713;28;20242;-72
2022/12/02 05:28:26;;;;;;;16.08;12.02;;;;;;;3.19;80.14;95301.53;5036607;28;20210;-71
2022/12/02 05:30:55;;;;;;;15.57;11.98;;;;;;;3.21;80.39;95304.00;5036068;28;20213;-71
2022/12/02 05:33:23;;;;;;;23.48;21.17;;;;;;;3.22;80.63;95306.41;5036021;28;20194;-71
2022/12/02 05:35:52;;;;;;;16.08;12.90;;;;;;;3.17;80.72;95306.50;5035568;28;20517;-71
2022/12/02 05:38:20;;;;;;;15.60;12.30;;;;;;;3.16;80.83;95315.81;5035734;28;20197;-72
2022/12/02 05:40:48;;;;;;;18.67;14.10;;;;;;;3.21;80.73;95318.44;5018940;28;20186;-71
2022/12/02 05:43:24;;;;;;;18.45;14.10;;;;;;;3.19;80.80;95315.19;5019322;28;20202;-71
2022/12/02 05:45:53;;;;;;;17.45;13.68;;;;;;;3.21;80.79;95318.44;5018056;28;20221;-71
2022/12/02 05:48:24;;;;;;;17.13;13.20;;;;;;;3.21;80.69;95318.44;5035011;28;20550;-71
2022/12/02 05:50:56;;;;;;;16.27;11.02;;;;;;;3.27;80.53;95324.59;5018537;28;20252;-71
2022/12/02 05:53:26;;;;;;;14.95;11.45;;;;;;;3.29;80.57;95327.81;5018579;28;20187;-71
2022/12/02 05:55:55;;;;;;;13.70;10.98;;;;;;;3.32;80.50;95321.78;5016485;28;20206;-71
2022/12/02 05:58:31;;;;;;;14.73;11.60;;;;;;;3.36;80.64;95334.50;5036035;28;20202;-70
2022/12/02 06:01:02;;;;;;;16.17;12.18;;;;;;;3.41;80.06;95335.50;5019855;28;20197;-70
2022/12/02 06:03:32;;;;;;;18.08;15.07;;;;;;;3.39;80.04;95333.09;5019466;28;20191;-70
2022/12/02 06:06:02;;;;;;;18.63;15.50;;;;;;;3.39;80.45;95338.56;5018633;28;20269;-70
2022/12/02 06:08:34;;;;;;;18.90;15.02;;;;;;;3.38;80.54;95336.94;5018462;28;20218;-70
2022/12/02 06:11:05;;;;;;;17.10;13.88;;;;;;;3.40;80.83;95347.53;5035430;28;20205;-69
2022/12/02 06:13:38;;;;;;;15.43;13.38;;;;;;;3.44;80.53;95346.63;5018264;28;20204;-71
2022/12/02 06:16:07;;;;;;;17.45;14.00;;;;;;;3.49;80.89;95352.00;5035121;28;20201;-70
2022/12/02 06:18:38;;;;;;;20.45;14.43;;;;;;;3.48;80.09;95349.56;5034874;28;20573;-70
2022/12/02 06:21:13;;;;;;;16.08;14.23;;;;;;;3.51;80.29;95349.78;5017792;28;20210;-70
2022/12/02 06:23:44;;;;;;;18.85;15.05;;;;;;;3.58;79.96;95347.44;5034646;28;20255;-70
2022/12/02 06:26:13;;;;;;;16.92;13.13;;;;;;;3.63;79.86;95346.53;5035075;28;20732;-71
2022/12/02 06:28:44;;;;;;;16.08;11.73;;;;;;;3.65;80.07;95352.50;5035083;28;20203;-71
2022/12/02 06:31:16;;;;;;;13.82;11.30;;;;;;;3.65;79.50;95357.16;5035054;28;20194;-71
2022/12/02 06:33:44;;;;;;;15.13;12.27;;;;;;;3.68;79.53;95345.66;5034658;28;20213;-71
2022/12/02 06:36:16;;;;;;;14.63;13.13;;;;;;;3.68;79.49;95353.84;5034947;28;20214;-70
2022/12/02 06:38:48;;;;;;;15.77;13.90;;;;;;;3.68;79.39;95353.84;5017828;28;20194;-70
2022/12/02 06:41:20;;;;;;;23.52;21.15;;;;;;;3.70;79.52;95357.06;5017659;28;20190;-70
2022/12/02 06:46:42;;;;;;;15.25;13.65;;;;;;;3.68;78.66;95360.09;5017473;28;20198;-72
2022/12/02 06:49:36;;;;;;;15.38;13.77;;;;;;;3.66;78.42;95356.84;5035053;28;20222;-73
2022/12/02 06:52:22;;;;;;;12.98;11.68;;;;;;;3.77;78.39;95360.19;5018797;28;20297;-72
2022/12/02 06:54:55;;;;;;;13.45;12.13;;;;;;;3.88;77.77;95360.81;5019188;28;20186;-72
2022/12/02 06:57:23;;;;;;;12.82;11.63;;;;;;;3.88;76.99;95361.63;5034575;28;20216;-70
2022/12/02 06:59:57;;;;;;;16.45;11.48;;;;;;;3.89;76.52;95362.44;5035040;28;20186;-69
2022/12/02 07:02:29;;;;;;;13.50;10.65;;;;;;;3.90;76.30;95366.78;5036018;28;20205;-71
2022/12/02 07:04:57;;;;;;;12.57;11.27;;;;;;;3.89;76.09;95371.44;5035251;28;20197;-71
2022/12/02 07:07:31;;;;;;;10.55;9.52;;;;;;;3.90;76.22;95359.41;5037170;28;20630;-71
2022/12/02 07:10:00;;;;;;;10.07;9.07;;;;;;;3.91;75.86;95363.75;5005018;28;20229;-71
2022/12/02 07:12:32;;;;;;;8.57;7.85;;;;;;;3.89;75.47;95373.34;5021425;28;20202;-71
2022/12/02 07:15:17;;;;;;;7.30;6.70;;;;;;;3.85;75.12;95373.16;5021124;28;20198;-71
2022/12/02 07:17:45;;;;;;;7.78;6.97;;;;;;;3.83;75.28;95376.16;5020883;28;20213;-71
2022/12/02 07:20:30;;;;;;;7.90;7.10;;;;;;;3.83;75.40;95372.63;5022950;28;20199;-71
2022/12/02 07:23:00;;;;;;;9.13;8.23;;;;;;;3.84;75.40;95369.59;5021920;28;20210;-71
2022/12/02 07:25:39;;;;;;;10.07;9.00;;;;;;;3.88;75.78;95377.19;5017425;28;20234;-71
2022/12/02 07:28:24;;;;;;;78.78;73.47;;;;;;;3.89;75.79;95379.63;5017483;28;20233;-72
2022/12/02 07:30:57;;;;;;;10.10;9.23;;;;;;;3.90;75.72;95374.97;5017330;28;20195;-71
2022/12/02 07:33:24;;;;;;;8.65;7.95;;;;;;;3.93;75.61;95375.19;5033711;28;20207;-72
2022/12/02 07:35:53;;;;;;;9.57;8.63;;;;;;;3.97;75.98;95389.03;5017115;28;20536;-72
2022/12/02 07:38:22;;;;;;;8.40;7.70;;;;;;;3.96;74.87;95390.13;5033882;28;20199;-72
2022/12/02 07:40:50;;;;;;;9.90;8.95;;;;;;;3.93;75.01;95386.09;5017361;28;20225;-71
2022/12/02 07:43:18;;;;;;;8.52;7.65;;;;;;;3.96;74.94;95387.38;5017037;28;20191;-71
2022/12/02 07:45:46;;;;;;;7.53;6.93;;;;;;;4.02;75.29;95380.72;5016901;28;20203;-71
2022/12/02 07:48:16;;;;;;;8.40;7.65;;;;;;;4.08;74.92;95396.69;5016911;28;20190;-71
2022/12/02 07:50:44;;;;;;;7.35;6.75;;;;;;;4.10;74.69;95394.50;5017154;28;20219;-71
2022/12/02 07:53:10;;;;;;;7.80;7.10;;;;;;;4.14;74.71;95391.97;5016847;28;20207;-71
2022/12/02 07:55:39;;;;;;;7.05;6.45;;;;;;;4.15;74.96;95396.28;5017693;28;20278;-71
2022/12/02 07:58:08;;;;;;;6.93;6.32;;;;;;;4.18;74.96;95394.88;5017245;28;20202;-71
2022/12/02 08:00:37;;;;;;;7.10;6.45;;;;;;;4.21;74.50;95403.28;5017563;28;20221;-73
2022/12/02 08:03:07;;;;;;;7.82;7.10;;;;;;;4.24;75.00;95396.38;5020180;28;20191;-71
2022/12/02 08:05:41;;;;;;;6.45;5.95;;;;;;;4.25;75.01;95396.09;5016661;28;20227;-72
2022/12/02 08:08:09;;;;;;;7.43;6.72;;;;;;;4.28;74.64;95408.31;5016296;28;20428;-72
2022/12/02 08:10:36;;;;;;;6.35;5.75;;;;;;;4.30;74.97;95404.16;5017982;28;20226;-72
2022/12/02 08:13:04;;;;;;;6.53;5.95;;;;;;;4.33;74.82;95395.38;5034196;28;20188;-71
2022/12/02 08:15:35;;;;;;;7.05;6.45;;;;;;;4.38;74.53;95402.63;5016431;28;20203;-71
2022/12/02 08:18:01;;;;;;;7.20;6.60;;;;;;;4.36;74.12;95404.88;5015215;28;20254;-71
2022/12/02 08:20:31;;;;;;;7.97;7.25;;;;;;;4.40;74.34;95399.63;5016631;28;20214;-71
2022/12/02 08:23:01;;;;;;;7.72;7.03;;;;;;;4.44;74.49;95406.09;5016543;28;20206;-71
2022/12/02 08:25:30;;;;;;;7.75;7.05;;;;;;;4.48;74.14;95421.56;5025550;28;20231;-71
2022/12/02 08:27:58;;;;;;;9.70;8.80;;;;;;;4.51;74.07;95411.94;5016120;28;20195;-72
2022/12/02 08:30:25;;;;;;;11.38;10.27;;;;;;;4.50;74.20;95402.09;5018218;28;20256;-72
2022/12/02 08:32:53;;;;;;;10.50;9.50;;;;;;;4.51;74.33;95404.56;5017183;28;20199;-72
2022/12/02 08:35:20;;;;;;;11.90;10.70;;;;;;;4.58;74.19;95413.13;5016075;28;20191;-71
2022/12/02 08:37:47;;;;;;;11.85;10.75;;;;;;;4.63;74.13;95419.59;5032354;28;20198;-72
2022/12/02 08:40:15;;;;;;;13.98;12.65;;;;;;;4.65;74.66;95410.00;5015919;28;20644;-70
2022/12/02 08:42:42;;;;;;;12.27;11.18;;;;;;;4.66;74.06;95411.59;5015793;28;20537;-72
2022/12/02 08:45:10;;;;;;;12.63;11.43;;;;;;;4.64;73.65;95411.09;5016249;28;20214;-72
2022/12/02 08:47:37;;;;;;;12.32;11.23;;;;;;;4.62;73.70;95418.81;5016239;28;20203;-71
2022/12/02 08:50:04;;;;;;;13.82;12.52;;;;;;;4.66;73.64;95419.81;5034558;28;20219;-71
2022/12/02 08:52:31;;;;;;;14.38;13.07;;;;;;;4.70;74.16;95418.06;5016520;28;20206;-70
2022/12/02 08:54:58;;;;;;;14.55;13.15;;;;;;;4.76;74.21;95427.78;5016079;28;20207;-72
2022/12/02 08:57:28;;;;;;;16.17;14.68;;;;;;;4.86;74.63;95423.19;5015280;28;20202;-71
2022/12/02 08:59:54;;;;;;;17.58;15.93;;;;;;;4.85;74.13;95421.59;5015291;28;20209;-72
2022/12/02 09:02:21;;;;;;;17.13;15.43;;;;;;;4.89;74.50;95422.56;5032475;28;20191;-72
2022/12/02 09:04:48;;;;;;;16.88;15.25;;;;;;;4.91;74.33;95420.34;5015417;28;20198;-72
2022/12/02 09:07:15;;;;;;;16.90;15.25;;;;;;;4.90;74.16;95424.19;5032027;28;20307;-72
2022/12/02 09:09:42;;;;;;;16.98;15.27;;;;;;;4.90;74.20;95425.03;5015414;28;20222;-71
2022/12/02 09:12:09;;;;;;;16.77;15.18;;;;;;;4.91;74.46;95412.97;5016281;28;20195;-70
2022/12/02 09:14:37;;;;;;;16.75;15.05;;;;;;;4.94;74.22;95425.19;5016259;28;20187;-70
2022/12/02 09:17:04;;;;;;;16.73;15.25;;;;;;;4.92;73.86;95413.75;5016257;28;20194;-72
2022/12/02 09:19:31;;;;;;;17.60;15.80;;;;;;;4.93;74.21;95413.44;5016455;28;20187;-73
2022/12/02 09:21:57;;;;;;;17.75;16.05;;;;;;;4.97;74.40;95411.72;5015299;28;20195;-70
2022/12/02 09:24:24;;;;;;;17.42;15.70;;;;;;;4.99;74.37;95419.63;5015752;28;20250;-72
2022/12/02 09:26:51;;;;;;;19.30;17.50;;;;;;;5.01;74.31;95414.63;5031965;28;20206;-72
2022/12/02 09:29:18;;;;;;;18.73;16.88;;;;;;;5.04;74.19;95412.09;5014563;28;20195;-70
2022/12/02 09:31:46;;;;;;;19.30;17.27;;;;;;;5.10;74.16;95407.31;5015856;28;20206;-72
2022/12/02 09:34:13;;;;;;;21.50;19.40;;;;;;;5.13;74.15;95405.91;5015426;28;20210;-72
2022/12/02 09:36:39;;;;;;;19.65;17.65;;;;;;;5.17;74.24;95404.97;5015186;28;20195;-70
2022/12/02 09:39:06;;;;;;;19.95;18.05;;;;;;;5.21;73.93;95407.88;5015036;28;20209;-70
2022/12/02 09:41:33;;;;;;;20.63;18.52;;;;;;;5.22;73.64;95404.03;5014863;28;20726;-70
2022/12/02 09:44:00;;;;;;;21.10;19.00;;;;;;;5.20;73.91;95403.53;5031289;28;20206;-72
2022/12/02 09:46:27;;;;;;;21.13;19.02;;;;;;;5.22;73.78;95401.28;5015401;28;20217;-72
2022/12/02 09:48:55;;;;;;;20.67;18.63;;;;;;;5.25;73.67;95397.94;5015276;28;20199;-70
2022/12/02 09:51:22;;;;;;;19.17;17.35;;;;;;;5.26;73.92;95403.09;5016805;28;20226;-72
2022/12/02 09:53:49;;;;;;;20.95;18.85;;;;;;;5.29;73.49;95390.72;5016593;28;20212;-72
2022/12/02 09:56:18;;;;;;;19.65;17.75;;;;;;;5.28;73.68;95398.13;5016649;28;20210;-72
2022/12/02 09:58:45;;;;;;;20.20;18.15;;;;;;;5.34;74.40;95390.63;5017118;28;20620;-72
2022/12/02 10:01:13;;;;;;;19.95;17.95;;;;;;;5.36;74.54;95385.63;5015678;28;20195;-72
2022/12/02 10:03:40;;;;;;;19.55;17.65;;;;;;;5.34;74.23;95390.63;5014898;28;20206;-72
2022/12/02 10:06:13;;;;;;;19.58;17.60;;;;;;;5.36;73.85;95391.09;5015948;28;20206;-72
2022/12/02 10:08:40;;;;;;;20.67;18.58;;;;;;;5.36;74.27;95385.63;5015516;28;20207;-71
2022/12/02 10:11:07;;;;;;;20.25;18.23;;;;;;;5.40;73.89;95383.88;5014834;28;20226;-72
2022/12/02 10:13:38;;;;;;;19.73;17.73;;;;;;;5.35;73.65;95385.94;5014859;28;20199;-72
2022/12/02 10:16:11;;;;;;;21.88;19.58;;;;;;;5.38;73.47;95383.41;5018883;28;20290;-69
2022/12/02 10:18:37;;;;;;;21.95;19.85;;;;;;;5.39;73.10;95386.94;5018960;28;20191;-69
2022/12/02 10:21:05;;;;;;;21.50;19.40;;;;;;;5.35;73.02;95384.03;5019683;28;20203;-70
2022/12/02 10:23:33;;;;;;;21.50;19.42;;;;;;;5.37;73.47;95381.75;5019208;28;20215;-70
2022/12/02 10:26:11;;;;;;;22.13;19.92;;;;;;;5.46;73.82;95385.38;5017404;28;20245;-69
2022/12/02 10:28:38;;;;;;;21.45;19.35;;;;;;;5.54;73.88;95375.59;5018396;28;20218;-72
2022/12/02 10:31:10;;;;;;;22.65;20.40;;;;;;;5.55;73.29;95377.22;5018161;28;20226;-69
2022/12/02 10:33:41;;;;;;;23.13;20.92;;;;;;;5.59;73.75;95374.66;5016243;28;20201;-71
2022/12/02 10:36:09;;;;;;;23.95;21.60;;;;;;;5.61;73.76;95386.09;5015483;28;20608;-71
2022/12/02 10:38:39;;;;;;;22.73;20.38;;;;;;;5.63;73.85;95386.59;5014931;28;20203;-72
2022/12/02 10:41:28;;;;;;;22.50;19.80;;;;;;;5.69;73.44;95382.59;5014461;28;20242;-72
2022/12/02 10:44:05;;;;;;;22.05;19.77;;;;;;;5.75;73.99;95382.16;5012892;28;20308;-72
2022/12/02 10:46:33;;;;;;;23.20;20.90;;;;;;;5.75;73.39;95384.09;5018813;28;20202;-73
2022/12/02 10:49:30;;;;;;;21.10;19.10;;;;;;;5.76;73.44;95375.56;5018776;28;20198;-73
2022/12/02 10:52:00;;;;;;;21.77;19.58;;;;;;;5.78;73.52;95372.50;5018463;28;20206;-74
2022/12/02 10:54:31;;;;;;;20.95;18.95;;;;;;;5.79;73.73;95376.84;5018797;28;20203;-73
2022/12/02 10:56:58;;;;;;;21.80;19.58;;;;;;;5.78;72.89;95375.25;5018308;28;20265;-73
2022/12/02 10:59:25;;;;;;;20.88;18.83;;;;;;;5.78;73.80;95372.50;5018243;28;20203;-74
2022/12/02 11:01:52;;;;;;;21.35;19.25;;;;;;;5.75;73.30;95371.22;5018624;28;20187;-72
2022/12/02 11:04:19;;;;;;;22.42;19.10;;;;;;;5.73;73.64;95373.44;5018293;28;20199;-73
2022/12/02 11:06:46;;;;;;;21.15;19.02;;;;;;;5.77;73.64;95379.94;5019035;28;20194;-73
2022/12/02 11:09:16;;;;;;;20.58;18.50;;;;;;;5.83;74.02;95379.78;5021839;28;20175;-72
2022/12/02 11:11:45;;;;;;;19.25;17.40;;;;;;;5.86;74.09;95385.44;5020647;28;20218;-72
2022/12/02 11:14:13;;;;;;;16.38;14.85;;;;;;;5.89;74.04;95381.25;5020683;28;20195;-73
2022/12/02 11:17:04;;;;;;;16.67;15.07;;;;;;;5.87;73.57;95387.03;5021622;28;20187;-73
2022/12/02 11:19:46;;;;;;;17.10;15.50;;;;;;;5.81;73.24;95388.31;5018115;28;20234;-73
2022/12/02 11:23:07;;;;;;;17.00;15.27;;;;;;;5.83;73.46;95386.06;5021685;28;20230;-73
2022/12/02 11:25:54;;;;;;;16.48;14.98;;;;;;;5.89;73.80;95390.28;4998358;28;20297;-70
2022/12/02 11:28:40;;;;;;;17.00;15.40;;;;;;;5.90;73.13;95388.34;5019417;28;20206;-72
2022/12/02 11:31:19;;;;;;;15.70;14.30;;;;;;;5.93;72.90;95393.22;5018902;28;20238;-73
2022/12/02 11:34:02;;;;;;;15.55;14.15;;;;;;;5.97;72.76;95396.94;5017470;28;20203;-72
2022/12/02 11:36:29;;;;;;;16.67;15.05;;;;;;;5.99;73.03;95403.72;5018486;28;20616;-72
2022/12/02 11:39:01;;;;;;;17.52;15.93;;;;;;;5.99;73.08;95401.00;5018097;28;20257;-73
2022/12/02 11:41:29;;;;;;;16.85;15.32;;;;;;;6.02;73.30;95405.81;5018802;28;20214;-73
2022/12/02 11:44:09;;;;;;;17.48;15.88;;;;;;;6.03;72.88;95401.16;5018445;28;20187;-75
2022/12/02 11:46:50;;;;;;;16.98;15.38;;;;;;;6.01;72.44;95401.47;5019029;28;20202;-75
2022/12/02 11:49:23;;;;;;;16.15;14.75;;;;;;;6.07;72.93;95395.88;5021816;28;20198;-73
2022/12/02 11:51:50;;;;;;;16.70;15.10;;;;;;;6.06;72.72;95407.91;5018099;28;20227;-72
2022/12/02 11:54:18;;;;;;;17.02;15.43;;;;;;;6.07;73.16;95401.34;5017533;28;20206;-74
2022/12/02 11:56:46;;;;;;;15.73;14.32;;;;;;;6.11;73.00;95394.09;5017336;28;20199;-73